createdAt,value
2022-09-20T00:01:34.781Z,18.25
2022-09-20T00:04:05.946Z,11.38
2022-09-20T00:06:35.049Z,7.00
2022-09-20T00:09:03.351Z,22.15
2022-09-20T00:11:33.142Z,13.82
2022-09-20T00:14:01.753Z,22.33
2022-09-20T00:16:35.419Z,15.07
2022-09-20T00:19:05.676Z,9.70
2022-09-20T00:21:34.657Z,5.95
2022-09-20T00:24:02.137Z,10.77
2022-09-20T00:26:32.127Z,6.97
2022-09-20T00:28:59.080Z,5.57
2022-09-20T00:31:26.779Z,12.05
2022-09-20T00:36:41.510Z,11.30
2022-09-20T00:39:11.995Z,10.80
2022-09-20T00:41:38.984Z,14.27
2022-09-20T00:44:45.976Z,14.85
2022-09-20T00:47:32.088Z,9.57
2022-09-20T00:50:38.509Z,28.13
2022-09-20T00:53:05.382Z,9.25
2022-09-20T00:55:36.090Z,10.37
2022-09-20T00:58:03.290Z,7.50
2022-09-20T01:00:30.610Z,13.20
2022-09-20T01:03:06.638Z,10.45
2022-09-20T01:05:34.568Z,13.82
2022-09-20T01:08:02.067Z,22.42
2022-09-20T01:10:29.438Z,10.20
2022-09-20T01:12:56.373Z,8.68
2022-09-20T01:15:26.826Z,14.77
2022-09-20T01:17:58.006Z,17.60
2022-09-20T01:20:34.897Z,17.73
2022-09-20T01:23:16.552Z,7.28
2022-09-20T01:26:07.150Z,6.43
2022-09-20T01:28:35.085Z,16.98
2022-09-20T01:31:26.077Z,19.33
2022-09-20T01:34:09.601Z,21.58
2022-09-20T01:36:55.128Z,13.45
2022-09-20T01:39:40.616Z,9.10
2022-09-20T01:42:13.705Z,8.00
2022-09-20T01:45:00.909Z,8.65
2022-09-20T01:47:47.920Z,7.55
2022-09-20T01:50:33.504Z,5.95
2022-09-20T01:53:21.858Z,5.82
2022-09-20T01:56:13.899Z,15.63
2022-09-20T01:59:22.122Z,18.58
2022-09-20T02:02:09.023Z,14.40
2022-09-20T02:05:07.579Z,5.47
2022-09-20T02:08:04.121Z,12.48
2022-09-20T02:10:43.224Z,18.38
2022-09-20T02:13:29.306Z,17.25
2022-09-20T02:16:27.432Z,21.65
2022-09-20T02:19:33.315Z,8.07
2022-09-20T02:22:30.322Z,7.88
2022-09-20T02:25:02.540Z,24.33
2022-09-20T02:27:40.948Z,4.40
2022-09-20T02:30:18.707Z,19.23
2022-09-20T02:33:15.760Z,17.83
2022-09-20T02:35:42.608Z,16.25
2022-09-20T02:38:55.586Z,18.15
2022-09-20T02:41:51.483Z,18.52
2022-09-20T02:44:56.483Z,11.73
2022-09-20T02:47:38.641Z,17.85
2022-09-20T02:50:38.444Z,14.43
2022-09-20T02:53:18.935Z,16.23
2022-09-20T02:56:09.048Z,13.85
2022-09-20T02:59:03.998Z,23.83
2022-09-20T03:01:33.648Z,13.55
2022-09-20T03:04:32.495Z,21.42
2022-09-20T03:07:08.498Z,7.25
2022-09-20T03:09:47.734Z,10.63
2022-09-20T03:12:20.464Z,13.48
2022-09-20T03:15:00.422Z,10.82
2022-09-20T03:17:56.727Z,11.50
2022-09-20T03:20:26.675Z,10.30
2022-09-20T03:23:12.423Z,19.23
2022-09-20T03:25:47.087Z,11.68
2022-09-20T03:28:40.230Z,10.32
2022-09-20T03:31:38.633Z,12.80
2022-09-20T03:34:33.607Z,8.52
2022-09-20T03:37:21.168Z,6.82
2022-09-20T03:40:29.711Z,29.33
2022-09-20T03:43:10.561Z,17.10
2022-09-20T03:45:49.904Z,22.35
2022-09-20T03:48:43.709Z,15.68
2022-09-20T03:51:20.841Z,12.80
2022-09-20T03:54:21.861Z,13.75
2022-09-20T03:57:12.638Z,11.15
2022-09-20T04:00:04.802Z,18.42
2022-09-20T04:02:50.711Z,8.20
2022-09-20T04:05:56.308Z,13.10
2022-09-20T04:08:48.569Z,26.77
2022-09-20T04:11:28.346Z,11.48
2022-09-20T04:14:02.882Z,20.98
2022-09-20T04:16:48.998Z,15.20
2022-09-20T04:19:41.183Z,7.50
2022-09-20T04:22:08.411Z,12.93
2022-09-20T04:24:53.093Z,11.35
2022-09-20T04:27:37.829Z,5.75
2022-09-20T04:30:18.557Z,17.38
2022-09-20T04:33:05.389Z,16.45
2022-09-20T04:36:04.086Z,23.75
2022-09-20T04:38:31.486Z,10.93
2022-09-20T04:41:23.029Z,19.63
2022-09-20T04:44:17.910Z,22.55
2022-09-20T04:47:03.356Z,11.82
2022-09-20T04:50:24.795Z,12.38
2022-09-20T04:53:39.198Z,20.83
2022-09-20T04:56:48.573Z,9.65
2022-09-20T04:59:48.892Z,24.75
2022-09-20T05:02:53.526Z,7.20
2022-09-20T05:05:50.507Z,14.00
2022-09-20T05:08:44.727Z,11.75
2022-09-20T05:11:33.657Z,22.10
2022-09-20T05:14:58.972Z,15.82
2022-09-20T05:17:45.750Z,16.35
2022-09-20T05:20:50.725Z,30.77
2022-09-20T05:23:37.223Z,16.17
2022-09-20T05:26:23.827Z,19.23
2022-09-20T05:29:01.037Z,24.15
2022-09-20T05:31:55.013Z,20.42
2022-09-20T05:34:42.914Z,27.67
2022-09-20T05:37:27.970Z,18.20
2022-09-20T05:40:27.042Z,25.85
2022-09-20T05:43:12.259Z,5.70
2022-09-20T05:45:55.497Z,17.25
2022-09-20T05:48:52.275Z,16.58
2022-09-20T05:51:50.125Z,25.42
2022-09-20T05:54:46.142Z,28.33
2022-09-20T05:57:19.515Z,18.02
2022-09-20T06:00:07.913Z,25.80
2022-09-20T06:03:02.652Z,31.45
2022-09-20T06:05:47.340Z,24.95
2022-09-20T06:08:34.442Z,22.42
2022-09-20T06:11:36.745Z,24.80
2022-09-20T06:14:30.926Z,23.58
2022-09-20T06:17:21.628Z,18.58
2022-09-20T06:20:23.626Z,30.85
2022-09-20T06:23:00.009Z,21.90
2022-09-20T06:25:48.048Z,16.75
2022-09-20T06:28:21.068Z,21.40
2022-09-20T06:30:50.760Z,27.05
2022-09-20T06:33:24.709Z,20.25
2022-09-20T06:36:25.936Z,13.70
2022-09-20T06:39:37.831Z,33.35
2022-09-20T06:42:06.185Z,23.85
2022-09-20T06:44:33.257Z,21.55
2022-09-20T06:47:00.098Z,30.77
2022-09-20T06:49:29.082Z,25.33
2022-09-20T06:51:56.709Z,19.77
2022-09-20T06:54:23.548Z,26.75
2022-09-20T06:56:51.556Z,12.75
2022-09-20T06:59:18.606Z,33.63
2022-09-20T07:01:45.628Z,27.13
2022-09-20T07:04:13.155Z,23.17
2022-09-20T07:06:40.554Z,30.58
2022-09-20T07:09:07.402Z,32.47
2022-09-20T07:11:34.994Z,25.70
2022-09-20T07:14:02.211Z,24.73
2022-09-20T07:16:29.460Z,33.88
2022-09-20T07:18:56.719Z,33.13
2022-09-20T07:21:24.359Z,26.77
2022-09-20T07:23:53.792Z,31.85
2022-09-20T07:26:30.076Z,25.88
2022-09-20T07:28:57.688Z,28.55
2022-09-20T07:31:26.557Z,27.58
2022-09-20T07:33:53.743Z,37.67
2022-09-20T07:36:20.723Z,24.23
2022-09-20T07:38:50.066Z,29.42
2022-09-20T07:41:22.795Z,21.70
2022-09-20T07:43:50.960Z,31.55
2022-09-20T07:46:22.101Z,17.63
2022-09-20T07:48:49.042Z,13.98
2022-09-20T07:51:18.862Z,10.98
2022-09-20T07:53:45.809Z,23.95
2022-09-20T07:56:15.074Z,15.95
2022-09-20T07:58:43.129Z,20.15
2022-09-20T08:01:13.520Z,28.38
2022-09-20T08:03:40.517Z,25.90
2022-09-20T08:06:15.002Z,28.52
2022-09-20T08:08:44.971Z,26.60
2022-09-20T08:11:15.335Z,20.92
2022-09-20T08:16:32.724Z,23.92
2022-09-20T08:19:01.688Z,28.05
2022-09-20T08:21:35.185Z,13.63
2022-09-20T08:24:03.804Z,17.73
2022-09-20T08:26:35.793Z,21.40
2022-09-20T08:29:05.693Z,34.78
2022-09-20T08:31:37.008Z,32.15
2022-09-20T08:34:06.618Z,14.25
2022-09-20T08:36:37.140Z,18.90
2022-09-20T08:42:17.999Z,20.38
2022-09-20T08:45:01.675Z,38.42
2022-09-20T08:47:35.791Z,16.75
2022-09-20T08:50:09.800Z,30.48
2022-09-20T08:52:40.510Z,11.48
2022-09-20T08:55:19.822Z,12.88
2022-09-20T08:57:53.311Z,16.98
2022-09-20T09:00:26.456Z,16.75
2022-09-20T09:03:05.843Z,20.30
2022-09-20T09:05:44.996Z,12.90
2022-09-20T09:08:17.940Z,16.15
2022-09-20T09:10:54.703Z,6.15
2022-09-20T09:13:31.635Z,16.15
2022-09-20T09:16:02.730Z,14.98
2022-09-20T09:18:50.534Z,21.95
2022-09-20T09:21:20.406Z,12.05
2022-09-20T09:24:14.041Z,12.68
2022-09-20T09:26:43.243Z,6.95
2022-09-20T09:29:15.710Z,16.85
2022-09-20T09:31:44.954Z,10.25
2022-09-20T09:34:30.211Z,8.93
2022-09-20T09:36:58.084Z,20.88
2022-09-20T09:39:28.830Z,11.18
2022-09-20T09:41:57.166Z,8.05
2022-09-20T09:44:27.654Z,5.25
2022-09-20T09:46:56.481Z,13.30
2022-09-20T09:49:25.445Z,6.70
2022-09-20T09:52:01.827Z,16.20
2022-09-20T09:54:36.307Z,15.88
2022-09-20T09:57:28.682Z,7.93
2022-09-20T10:00:17.886Z,17.58
2022-09-20T10:03:24.123Z,7.47
2022-09-20T10:06:00.629Z,24.02
2022-09-20T10:08:37.225Z,4.45
2022-09-20T10:11:21.964Z,16.08
2022-09-20T10:13:57.612Z,9.85
2022-09-20T10:16:52.090Z,10.95
2022-09-20T10:19:33.874Z,9.88
2022-09-20T10:22:06.787Z,7.22
2022-09-20T10:25:10.511Z,9.02
2022-09-20T10:28:04.902Z,9.30
2022-09-20T10:31:03.770Z,3.70
2022-09-20T10:33:45.516Z,2.22
2022-09-20T10:36:35.102Z,7.10
2022-09-20T10:39:20.667Z,17.35
2022-09-20T10:42:34.472Z,3.78
2022-09-20T10:45:59.603Z,10.77
2022-09-20T10:48:23.115Z,6.50
2022-09-20T10:51:02.526Z,7.25
2022-09-20T10:53:36.473Z,18.33
2022-09-20T10:56:24.332Z,7.78
2022-09-20T10:59:17.175Z,3.90
2022-09-20T11:02:04.091Z,7.18
2022-09-20T11:04:42.810Z,3.20
2022-09-20T11:07:12.295Z,11.00
2022-09-20T11:09:55.431Z,11.77
2022-09-20T11:12:28.538Z,8.80
2022-09-20T11:15:04.913Z,9.50
2022-09-20T11:17:39.271Z,6.30
2022-09-20T11:20:15.367Z,6.85
2022-09-20T11:23:08.815Z,6.43
2022-09-20T11:25:58.299Z,12.77
2022-09-20T11:28:25.562Z,12.48
2022-09-20T11:31:00.108Z,9.25
2022-09-20T11:33:41.633Z,16.25
2022-09-20T11:36:25.441Z,6.20
2022-09-20T11:38:59.032Z,1.40
2022-09-20T11:41:30.531Z,5.20
2022-09-20T11:44:06.908Z,6.95
2022-09-20T11:46:47.707Z,6.85
2022-09-20T11:49:21.992Z,13.43
2022-09-20T11:51:59.972Z,5.82
2022-09-20T11:54:39.511Z,8.55
2022-09-20T11:57:08.622Z,9.25
2022-09-20T11:59:38.291Z,6.47
2022-09-20T12:02:36.508Z,6.60
2022-09-20T12:05:20.358Z,5.65
2022-09-20T12:07:53.368Z,3.72
2022-09-20T12:10:30.479Z,5.32
2022-09-20T12:13:18.255Z,9.85
2022-09-20T12:15:45.267Z,2.75
2022-09-20T12:18:35.681Z,1.95
2022-09-20T12:21:06.525Z,1.33
2022-09-20T12:23:45.189Z,5.82
2022-09-20T12:26:21.787Z,6.45
2022-09-20T12:29:00.552Z,14.15
2022-09-20T12:31:38.254Z,12.57
2022-09-20T12:34:10.763Z,3.65
2022-09-20T12:36:43.103Z,1.35
2022-09-20T12:39:15.157Z,7.63
2022-09-20T12:42:10.659Z,3.22
2022-09-20T12:44:49.510Z,5.85
2022-09-20T12:47:23.813Z,5.05
2022-09-20T12:50:11.180Z,3.58
2022-09-20T12:53:06.179Z,18.25
2022-09-20T12:56:03.244Z,2.50
2022-09-20T12:58:54.511Z,2.92
2022-09-20T13:01:21.281Z,4.95
2022-09-20T13:03:49.818Z,2.63
2022-09-20T13:06:19.294Z,4.95
2022-09-20T13:09:04.555Z,5.28
2022-09-20T13:11:52.468Z,9.40
2022-09-20T13:14:29.692Z,8.75
2022-09-20T13:17:01.190Z,3.78
2022-09-20T13:19:38.897Z,5.05
2022-09-20T13:22:18.316Z,6.95
2022-09-20T13:24:47.985Z,9.27
2022-09-20T13:27:46.844Z,5.75
2022-09-20T13:30:20.951Z,4.60
2022-09-20T13:32:49.247Z,3.40
2022-09-20T13:35:24.758Z,5.90
2022-09-20T13:38:02.041Z,4.43
2022-09-20T13:43:32.448Z,3.90
2022-09-20T13:46:06.377Z,3.60
2022-09-20T13:48:34.534Z,1.30
2022-09-20T13:51:01.227Z,2.45
2022-09-20T13:53:41.599Z,2.70
2022-09-20T13:56:25.517Z,3.83
2022-09-20T13:58:53.158Z,4.93
2022-09-20T14:01:33.484Z,2.83
2022-09-20T14:04:16.031Z,1.90
2022-09-20T14:06:43.302Z,2.70
2022-09-20T14:09:21.329Z,4.15
2022-09-20T14:11:48.943Z,1.27
2022-09-20T14:14:21.295Z,9.38
2022-09-20T14:16:49.964Z,7.53
2022-09-20T14:19:19.986Z,3.38
2022-09-20T14:21:47.893Z,1.88
2022-09-20T14:24:14.577Z,2.22
2022-09-20T14:26:42.898Z,1.40
2022-09-20T14:29:34.676Z,5.55
2022-09-20T14:32:19.453Z,5.30
2022-09-20T14:34:51.516Z,2.90
2022-09-20T14:37:27.187Z,5.47
2022-09-20T14:40:03.446Z,7.82
2022-09-20T14:42:40.785Z,9.70
2022-09-20T14:47:40.204Z,1.65
2022-09-20T14:50:34.041Z,4.60
2022-09-20T14:53:06.820Z,12.57
2022-09-20T14:55:37.592Z,5.25
2022-09-20T14:58:13.424Z,4.18
2022-09-20T15:00:51.823Z,4.05
2022-09-20T15:03:30.955Z,6.82
2022-09-20T15:05:58.127Z,5.35
2022-09-20T15:08:25.491Z,1.85
2022-09-20T15:10:52.326Z,4.43
2022-09-20T15:13:19.364Z,10.65
2022-09-20T15:15:51.000Z,3.40
2022-09-20T15:18:25.207Z,5.45
2022-09-20T15:20:53.160Z,7.75
2022-09-20T15:23:20.435Z,4.03
2022-09-20T15:25:51.355Z,9.57
2022-09-20T15:28:18.375Z,3.35
2022-09-20T15:30:46.284Z,6.22
2022-09-20T15:33:13.792Z,3.53
2022-09-20T15:35:42.430Z,2.50
2022-09-20T15:38:11.633Z,7.05
2022-09-20T15:40:49.295Z,4.22
2022-09-20T15:43:26.287Z,2.15
2022-09-20T15:45:55.323Z,7.18
2022-09-20T15:48:25.459Z,6.95
2022-09-20T15:51:12.838Z,3.17
2022-09-20T15:53:45.256Z,6.18
2022-09-20T15:56:22.754Z,3.80
2022-09-20T15:59:00.843Z,3.80
2022-09-20T16:01:29.841Z,4.97
2022-09-20T16:03:56.520Z,2.70
2022-09-20T16:06:24.264Z,5.47
2022-09-20T16:08:51.363Z,4.90
2022-09-20T16:11:22.942Z,8.25
2022-09-20T16:13:54.429Z,3.97
2022-09-20T16:16:21.503Z,4.13
2022-09-20T16:19:07.545Z,7.95
2022-09-20T16:21:35.036Z,6.45
2022-09-20T16:24:01.898Z,2.38
2022-09-20T16:26:31.118Z,3.95
2022-09-20T16:28:57.950Z,4.28
2022-09-20T16:31:35.306Z,2.33
2022-09-20T16:36:32.049Z,9.13
2022-09-20T16:38:59.288Z,6.97
2022-09-20T16:41:28.434Z,3.83
2022-09-20T16:43:55.876Z,8.13
2022-09-20T16:48:53.867Z,2.28
2022-09-20T16:51:28.806Z,5.28
2022-09-20T16:53:55.956Z,3.58
2022-09-20T16:56:29.704Z,2.80
2022-09-20T16:58:56.772Z,4.57
2022-09-20T17:01:23.585Z,3.40
2022-09-20T17:03:50.349Z,3.55
2022-09-20T17:06:18.864Z,3.13
2022-09-20T17:08:46.726Z,3.45
2022-09-20T17:11:22.683Z,2.08
2022-09-20T17:13:51.871Z,4.80
2022-09-20T17:16:21.643Z,4.88
2022-09-20T17:18:54.223Z,1.40
2022-09-20T17:21:22.338Z,2.72
2022-09-20T17:23:54.933Z,8.10
2022-09-20T17:26:26.467Z,4.10
2022-09-20T17:28:58.047Z,5.97
2022-09-20T17:31:33.960Z,4.30
2022-09-20T17:34:03.933Z,6.40
2022-09-20T17:36:33.235Z,2.88
2022-09-20T17:39:04.402Z,5.15
2022-09-20T17:41:32.832Z,3.65
2022-09-20T17:44:02.515Z,2.90
2022-09-20T17:46:31.996Z,11.40
2022-09-20T17:49:01.052Z,3.72
2022-09-20T17:51:30.502Z,5.78
2022-09-20T17:53:57.375Z,5.05
2022-09-20T17:56:28.492Z,5.65
2022-09-20T17:58:56.760Z,6.75
2022-09-20T18:01:23.759Z,8.20
2022-09-20T18:03:50.631Z,6.28
2022-09-20T18:06:20.195Z,4.90
2022-09-20T18:08:50.230Z,8.40
2022-09-20T18:11:19.701Z,4.32
2022-09-20T18:13:47.029Z,10.95
2022-09-20T18:16:17.078Z,9.82
2022-09-20T18:18:49.089Z,7.82
2022-09-20T18:21:18.153Z,8.05
2022-09-20T18:23:46.055Z,7.43
2022-09-20T18:26:24.446Z,4.35
2022-09-20T18:29:03.127Z,6.03
2022-09-20T18:31:33.226Z,5.30
2022-09-20T18:34:02.163Z,3.72
2022-09-20T18:36:30.956Z,6.25
2022-09-20T18:38:58.422Z,10.55
2022-09-20T18:41:28.399Z,8.98
2022-09-20T18:43:56.327Z,8.23
2022-09-20T18:46:24.830Z,5.35
2022-09-20T18:48:53.721Z,11.45
2022-09-20T18:51:22.243Z,5.13
2022-09-20T18:53:51.397Z,3.75
2022-09-20T18:56:30.097Z,4.90
2022-09-20T18:59:08.231Z,4.20
2022-09-20T19:01:53.458Z,5.60
2022-09-20T19:04:47.470Z,5.40
2022-09-20T19:07:39.267Z,4.97
2022-09-20T19:10:06.045Z,8.32
2022-09-20T19:13:02.064Z,6.03
2022-09-20T19:16:00.353Z,11.60
2022-09-20T19:18:45.381Z,21.33
2022-09-20T19:21:27.534Z,12.57
2022-09-20T19:24:28.166Z,16.08
2022-09-20T19:26:55.147Z,6.60
2022-09-20T19:29:25.130Z,7.55
2022-09-20T19:31:55.474Z,4.78
2022-09-20T19:34:28.588Z,7.05
2022-09-20T19:37:08.406Z,5.53
2022-09-20T19:40:13.089Z,5.53
2022-09-20T19:42:46.247Z,6.53
2022-09-20T19:45:31.533Z,4.35
2022-09-20T19:48:27.246Z,7.53
2022-09-20T19:50:54.617Z,8.35
2022-09-20T19:53:26.741Z,6.05
2022-09-20T19:56:06.538Z,7.10
2022-09-20T19:58:35.043Z,7.15
2022-09-20T20:01:01.919Z,7.88
2022-09-20T20:03:29.859Z,5.13
2022-09-20T20:05:56.534Z,4.03
2022-09-20T20:08:35.124Z,7.13
2022-09-20T20:11:01.831Z,5.97
2022-09-20T20:14:03.139Z,9.95
2022-09-20T20:16:57.790Z,7.45
2022-09-20T20:19:36.875Z,11.55
2022-09-20T20:22:40.847Z,12.70
2022-09-20T20:25:26.337Z,13.43
2022-09-20T20:27:53.178Z,12.32
2022-09-20T20:30:20.241Z,11.23
2022-09-20T20:32:47.567Z,11.70
2022-09-20T20:35:17.179Z,14.00
2022-09-20T20:37:44.530Z,13.00
2022-09-20T20:41:11.944Z,8.40
2022-09-20T20:43:54.275Z,12.05
2022-09-20T20:46:33.000Z,7.50
2022-09-20T20:49:23.084Z,10.68
2022-09-20T20:51:51.379Z,11.25
2022-09-20T20:54:24.422Z,12.05
2022-09-20T20:57:00.140Z,6.22
2022-09-20T20:59:35.267Z,16.35
2022-09-20T21:02:08.195Z,11.05
2022-09-20T21:04:40.807Z,5.57
2022-09-20T21:07:17.243Z,10.10
2022-09-20T21:09:56.259Z,9.50
2022-09-20T21:12:29.361Z,14.00
2022-09-20T21:15:16.072Z,10.30
2022-09-20T21:17:49.884Z,7.88
2022-09-20T21:20:23.548Z,10.43
2022-09-20T21:22:51.640Z,12.93
2022-09-20T21:25:27.138Z,8.80
2022-09-20T21:27:59.480Z,10.25
2022-09-20T21:30:29.378Z,18.90
2022-09-20T21:32:59.907Z,15.40
2022-09-20T21:35:29.846Z,17.08
2022-09-20T21:37:57.183Z,8.80
2022-09-20T21:40:27.352Z,11.77
2022-09-20T21:42:55.456Z,10.63
2022-09-20T21:45:27.356Z,13.98
2022-09-20T21:47:54.762Z,9.85
2022-09-20T21:50:29.015Z,11.48
2022-09-20T21:53:02.671Z,10.65
2022-09-20T21:55:30.211Z,10.90
2022-09-20T21:58:02.962Z,17.33
2022-09-20T22:00:31.162Z,17.70
2022-09-20T22:03:01.359Z,9.38
2022-09-20T22:05:31.046Z,14.95
2022-09-20T22:08:39.933Z,10.77
2022-09-20T22:11:12.192Z,13.40
2022-09-20T22:13:51.759Z,11.10
2022-09-20T22:16:27.179Z,10.43
2022-09-20T22:18:59.779Z,10.80
2022-09-20T22:21:32.393Z,10.00
2022-09-20T22:24:02.838Z,8.57
2022-09-20T22:26:34.358Z,15.73
2022-09-20T22:29:06.451Z,12.20
2022-09-20T22:31:45.106Z,14.13
2022-09-20T22:34:20.134Z,13.10
2022-09-20T22:36:48.047Z,19.30
2022-09-20T22:39:15.891Z,9.25
2022-09-20T22:41:47.953Z,10.85
2022-09-20T22:44:18.639Z,18.05
2022-09-20T22:46:49.036Z,10.02
2022-09-20T22:49:16.748Z,13.45
2022-09-20T22:51:44.040Z,13.00
2022-09-20T22:54:16.481Z,11.85
2022-09-20T22:56:45.409Z,13.32
2022-09-20T22:59:16.840Z,14.80
2022-09-20T23:01:46.338Z,9.00
2022-09-20T23:04:19.018Z,8.32
2022-09-20T23:06:55.046Z,8.23
2022-09-20T23:09:28.389Z,10.65
2022-09-20T23:11:58.416Z,12.00
2022-09-20T23:14:29.110Z,16.73
2022-09-20T23:17:02.013Z,9.65
2022-09-20T23:19:32.408Z,8.38
2022-09-20T23:22:01.015Z,11.63
2022-09-20T23:24:28.406Z,16.30
2022-09-20T23:26:55.516Z,13.82
2022-09-20T23:29:23.948Z,14.13
2022-09-20T23:31:57.791Z,11.68
2022-09-20T23:34:25.063Z,11.60
2022-09-20T23:36:55.650Z,16.95
2022-09-20T23:39:23.044Z,12.45
2022-09-20T23:41:51.354Z,7.97
2022-09-20T23:44:18.986Z,7.05
2022-09-20T23:46:46.072Z,8.25
2022-09-20T23:49:17.021Z,10.02
2022-09-20T23:51:45.003Z,11.75
2022-09-20T23:54:13.142Z,12.35
2022-09-20T23:56:48.583Z,13.05
2022-09-20T23:59:21.129Z,10.73
